createdAt,value
2022-09-12T02:46:21.159Z,38.99
2022-09-12T02:47:21.111Z,42.38
2022-09-12T02:48:22.377Z,34.64
2022-09-12T02:49:22.353Z,36.09
2022-09-12T02:50:22.181Z,37.54
2022-09-12T02:51:23.791Z,34.48
2022-09-12T02:52:23.169Z,38.83
2022-09-12T02:53:22.183Z,40.61
2022-09-12T02:54:22.215Z,38.99
2022-09-12T02:55:22.109Z,46.25
2022-09-12T02:56:22.105Z,46.73
2022-09-12T02:57:23.253Z,48.34
2022-09-12T02:58:23.087Z,45.92
2022-09-12T02:59:22.064Z,43.18
2022-09-12T03:00:22.063Z,45.44
2022-09-12T03:01:22.164Z,44.47
2022-09-12T03:02:22.084Z,40.93
2022-09-12T03:03:22.092Z,45.44
2022-09-12T03:04:22.063Z,43.34
2022-09-12T03:05:22.039Z,34.48
2022-09-12T03:06:22.041Z,40.77
2022-09-12T03:07:22.008Z,49.15
2022-09-12T03:08:22.069Z,37.06
2022-09-12T03:09:22.010Z,38.83
2022-09-12T03:10:21.976Z,47.05
2022-09-12T03:11:21.937Z,45.44
2022-09-12T03:12:21.981Z,44.47
2022-09-12T03:13:21.953Z,46.57
2022-09-12T03:14:21.953Z,48.98
2022-09-12T03:15:21.918Z,40.12
2022-09-12T03:16:21.986Z,46.73
2022-09-12T03:17:21.937Z,42.06
2022-09-12T03:18:21.889Z,47.37
2022-09-12T03:19:21.893Z,43.99
2022-09-12T03:20:21.906Z,51.24
2022-09-12T03:21:21.863Z,51.08
2022-09-12T03:22:21.828Z,47.05
2022-09-12T03:23:22.067Z,46.41
2022-09-12T03:24:21.813Z,48.82
2022-09-12T03:25:21.780Z,50.60
2022-09-12T03:26:21.869Z,50.60
2022-09-12T03:27:22.632Z,50.11
2022-09-12T03:28:21.825Z,49.63
2022-09-12T03:29:21.845Z,48.50
2022-09-12T03:30:21.835Z,46.57
2022-09-12T03:31:21.787Z,49.15
2022-09-12T03:32:21.754Z,44.63
2022-09-12T03:33:21.775Z,45.92
2022-09-12T03:34:21.772Z,43.18
2022-09-12T03:35:23.163Z,49.63
2022-09-12T03:36:22.737Z,55.43
2022-09-12T03:37:21.732Z,46.57
2022-09-12T03:38:21.752Z,49.95
2022-09-12T03:39:21.708Z,49.15
2022-09-12T03:40:21.694Z,50.92
2022-09-12T03:41:21.660Z,51.88
2022-09-12T03:42:22.542Z,48.98
2022-09-12T03:43:21.680Z,50.11
2022-09-12T03:44:21.648Z,49.63
2022-09-12T03:45:21.654Z,46.08
2022-09-12T03:46:22.132Z,51.56
2022-09-12T03:47:21.639Z,50.92
2022-09-12T03:48:21.617Z,43.51
2022-09-12T03:49:21.606Z,44.31
2022-09-12T03:50:21.569Z,53.50
2022-09-12T03:51:21.590Z,47.53
2022-09-12T03:52:21.548Z,52.21
2022-09-12T03:53:21.599Z,45.60
2022-09-12T03:54:21.514Z,53.01
2022-09-12T03:55:21.530Z,50.92
2022-09-12T03:56:21.509Z,49.63
2022-09-12T03:57:21.536Z,53.17
2022-09-12T03:58:21.559Z,42.22
2022-09-12T03:59:21.483Z,45.92
2022-09-12T04:00:21.495Z,50.92
2022-09-12T04:01:21.542Z,50.11
2022-09-12T04:02:21.543Z,50.92
2022-09-12T04:03:21.484Z,51.24
2022-09-12T04:04:21.463Z,52.85
2022-09-12T04:05:21.434Z,51.40
2022-09-12T04:06:21.391Z,51.72
2022-09-12T04:07:21.471Z,49.31
2022-09-12T04:08:21.426Z,53.98
2022-09-12T04:09:21.377Z,49.95
2022-09-12T04:10:21.368Z,55.91
2022-09-12T04:11:21.406Z,51.40
2022-09-12T04:12:21.344Z,50.60
2022-09-12T04:13:21.354Z,50.43
2022-09-12T04:14:21.407Z,49.15
2022-09-12T04:15:21.349Z,51.08
2022-09-12T04:16:21.341Z,53.66
2022-09-12T04:17:21.354Z,53.33
2022-09-12T04:18:21.336Z,45.76
2022-09-12T04:19:21.327Z,56.56
2022-09-12T04:20:21.318Z,55.75
2022-09-12T04:21:22.000Z,55.91
2022-09-12T04:22:21.253Z,55.43
2022-09-12T04:23:21.720Z,55.59
2022-09-12T04:24:21.227Z,53.98
2022-09-12T04:25:21.229Z,52.05
2022-09-12T04:26:21.227Z,55.75
2022-09-12T04:27:21.193Z,53.98
2022-09-12T04:28:21.289Z,50.43
2022-09-12T04:29:21.169Z,56.24
2022-09-12T04:30:21.173Z,51.56
2022-09-12T04:31:21.168Z,53.33
2022-09-12T04:32:21.122Z,54.95
2022-09-12T04:33:21.145Z,49.95
2022-09-12T04:34:21.175Z,52.69
2022-09-12T04:35:21.153Z,51.08
2022-09-12T04:36:21.118Z,54.14
2022-09-12T04:37:21.158Z,51.88
2022-09-12T04:38:21.161Z,54.79
2022-09-12T04:39:21.121Z,49.95
2022-09-12T04:40:21.082Z,52.21
2022-09-12T04:41:21.087Z,58.65
2022-09-12T04:42:21.146Z,52.05
2022-09-12T04:43:21.046Z,53.66
2022-09-12T04:44:21.040Z,54.95
2022-09-12T04:45:21.042Z,55.59
2022-09-12T04:46:21.011Z,54.79
2022-09-12T04:47:21.018Z,50.92
2022-09-12T04:48:21.032Z,56.56
2022-09-12T04:49:20.989Z,55.75
2022-09-12T04:50:20.940Z,53.66
2022-09-12T04:51:20.970Z,53.33
2022-09-12T04:52:20.953Z,54.79
2022-09-12T04:53:20.939Z,54.30
2022-09-12T04:54:20.974Z,55.43
2022-09-12T04:55:20.954Z,53.17
2022-09-12T04:56:20.924Z,52.53
2022-09-12T04:57:21.516Z,55.75
2022-09-12T04:58:20.959Z,54.95
2022-09-12T04:59:20.893Z,55.11
2022-09-12T05:00:20.926Z,53.66
2022-09-12T05:01:20.955Z,57.85
2022-09-12T05:02:20.893Z,56.40
2022-09-12T05:03:20.861Z,54.14
2022-09-12T05:04:20.825Z,54.14
2022-09-12T05:05:20.826Z,53.98
2022-09-12T05:06:20.823Z,51.08
2022-09-12T05:07:20.847Z,51.88
2022-09-12T05:08:21.052Z,52.69
2022-09-12T05:09:20.838Z,55.75
2022-09-12T05:10:20.773Z,55.27
2022-09-12T05:11:24.752Z,50.43
2022-09-12T05:12:22.724Z,53.17
2022-09-12T05:13:24.085Z,52.53
2022-09-12T05:14:20.727Z,52.05
2022-09-12T05:15:22.775Z,53.17
2022-09-12T05:16:20.724Z,57.20
2022-09-12T05:17:20.759Z,56.07
2022-09-12T05:18:20.759Z,56.72
2022-09-12T05:19:20.702Z,55.27
2022-09-12T05:20:20.711Z,54.79
2022-09-12T05:21:20.696Z,54.95
2022-09-12T05:22:20.649Z,55.11
2022-09-12T05:23:20.709Z,53.66
2022-09-12T05:24:20.674Z,56.72
2022-09-12T05:25:20.627Z,54.14
2022-09-12T05:26:20.614Z,57.52
2022-09-12T05:27:20.685Z,55.91
2022-09-12T05:28:20.605Z,53.82
2022-09-12T05:29:20.583Z,57.85
2022-09-12T05:30:20.665Z,55.43
2022-09-12T05:31:20.597Z,57.36
2022-09-12T05:32:20.588Z,56.56
2022-09-12T05:33:24.916Z,57.85
2022-09-12T05:34:21.539Z,55.59
2022-09-12T05:35:20.713Z,57.04
2022-09-12T05:36:20.542Z,54.95
2022-09-12T05:37:20.521Z,55.91
2022-09-12T05:38:20.531Z,57.85
2022-09-12T05:39:20.549Z,56.88
2022-09-12T05:40:20.453Z,54.30
2022-09-12T05:41:24.729Z,56.07
2022-09-12T05:42:21.500Z,55.91
2022-09-12T05:43:20.484Z,55.27
2022-09-12T05:44:20.573Z,55.27
2022-09-12T05:45:20.450Z,54.95
2022-09-12T05:46:20.412Z,56.88
2022-09-12T05:47:20.442Z,57.52
2022-09-12T05:48:20.469Z,56.72
2022-09-12T05:49:20.394Z,59.94
2022-09-12T05:50:20.463Z,56.07
2022-09-12T05:51:20.390Z,54.30
2022-09-12T05:52:20.401Z,57.69
2022-09-12T05:53:20.382Z,56.72
2022-09-12T05:54:20.474Z,53.33
2022-09-12T05:55:20.381Z,54.79
2022-09-12T05:56:20.348Z,53.82
2022-09-12T05:57:20.350Z,55.11
2022-09-12T05:58:20.412Z,50.43
2022-09-12T05:59:20.307Z,55.27
2022-09-12T06:00:20.314Z,54.14
2022-09-12T06:01:20.315Z,53.01
2022-09-12T06:02:20.376Z,54.95
2022-09-12T06:03:20.279Z,54.79
2022-09-12T06:04:21.140Z,54.79
2022-09-12T06:05:20.283Z,52.37
2022-09-12T06:06:20.237Z,49.15
2022-09-12T06:07:20.272Z,51.88
2022-09-12T06:08:20.218Z,53.01
2022-09-12T06:09:20.241Z,52.21
2022-09-12T06:10:20.237Z,51.56
2022-09-12T06:11:20.209Z,51.40
2022-09-12T06:12:20.210Z,55.27
2022-09-12T06:13:20.190Z,48.98
2022-09-12T06:14:21.244Z,53.01
2022-09-12T06:15:21.773Z,51.40
2022-09-12T06:16:20.246Z,52.05
2022-09-12T06:17:20.159Z,48.66
2022-09-12T06:18:20.214Z,51.08
2022-09-12T06:19:20.110Z,55.27
2022-09-12T06:20:20.131Z,52.53
2022-09-12T06:21:20.073Z,53.98
2022-09-12T06:22:20.133Z,56.07
2022-09-12T06:23:20.103Z,53.98
2022-09-12T06:24:20.097Z,53.82
2022-09-12T06:25:20.068Z,54.30
2022-09-12T06:26:20.100Z,56.56
2022-09-12T06:27:20.026Z,53.01
2022-09-12T06:28:20.084Z,53.66
2022-09-12T06:29:20.032Z,50.60
2022-09-12T06:30:24.765Z,49.63
2022-09-12T06:31:21.988Z,49.95
2022-09-12T06:32:19.991Z,52.21
2022-09-12T06:33:20.088Z,52.05
2022-09-12T06:34:19.962Z,47.37
2022-09-12T06:35:20.031Z,54.14
2022-09-12T06:36:19.978Z,49.31
2022-09-12T06:37:20.001Z,50.76
2022-09-12T06:38:20.173Z,53.17
2022-09-12T06:39:19.949Z,53.17
2022-09-12T06:40:19.992Z,54.95
2022-09-12T06:41:19.903Z,52.21
2022-09-12T06:42:20.001Z,55.43
2022-09-12T06:43:19.896Z,48.50
2022-09-12T06:44:19.885Z,47.37
2022-09-12T06:45:19.854Z,47.86
2022-09-12T06:46:19.919Z,51.56
2022-09-12T06:47:19.854Z,55.27
2022-09-12T06:48:19.854Z,47.86
2022-09-12T06:49:19.860Z,48.02
2022-09-12T06:50:19.872Z,49.95
2022-09-12T06:51:19.788Z,51.08
2022-09-12T06:52:19.901Z,49.79
2022-09-12T06:53:19.829Z,50.60
2022-09-12T06:54:19.793Z,52.21
2022-09-12T06:55:22.543Z,47.70
2022-09-12T06:56:20.765Z,53.98
2022-09-12T06:57:19.823Z,50.27
2022-09-12T06:58:20.681Z,51.88
2022-09-12T06:59:19.739Z,53.66
2022-09-12T07:00:19.725Z,52.53
2022-09-12T07:01:19.752Z,51.72
2022-09-12T07:02:19.771Z,52.69
2022-09-12T07:03:19.756Z,52.53
2022-09-12T07:04:19.668Z,52.69
2022-09-12T07:05:19.647Z,49.47
2022-09-12T07:06:19.763Z,53.50
2022-09-12T07:07:19.651Z,54.14
2022-09-12T07:08:19.668Z,53.82
2022-09-12T07:09:19.626Z,51.56
2022-09-12T07:10:22.316Z,45.44
2022-09-12T07:11:20.659Z,53.82
2022-09-12T07:12:19.608Z,52.85
2022-09-12T07:13:20.489Z,49.47
2022-09-12T07:14:19.625Z,47.53
2022-09-12T07:15:19.602Z,52.85
2022-09-12T07:16:20.186Z,51.72
2022-09-12T07:17:20.529Z,54.79
2022-09-12T07:18:19.549Z,51.72
2022-09-12T07:19:19.617Z,51.40
2022-09-12T07:20:19.491Z,47.37
2022-09-12T07:21:19.758Z,53.82
2022-09-12T07:22:19.516Z,54.30
2022-09-12T07:23:19.506Z,52.05
2022-09-12T07:24:19.478Z,54.30
2022-09-12T07:25:19.508Z,48.02
2022-09-12T07:26:19.453Z,48.98
2022-09-12T07:27:19.489Z,54.46
2022-09-12T07:28:19.436Z,50.27
2022-09-12T07:29:36.081Z,50.11
2022-09-12T07:30:21.453Z,53.17
2022-09-12T07:31:19.424Z,54.95
2022-09-12T07:32:19.453Z,49.95
2022-09-12T07:33:20.131Z,50.11
2022-09-12T07:34:19.410Z,53.82
2022-09-12T07:35:19.421Z,52.85
2022-09-12T07:36:19.389Z,53.17
2022-09-12T07:37:19.305Z,51.24
2022-09-12T07:38:19.329Z,44.79
2022-09-12T07:39:19.396Z,47.70
2022-09-12T07:40:19.368Z,49.47
2022-09-12T07:41:19.353Z,51.56
2022-09-12T07:42:19.334Z,48.02
2022-09-12T07:43:19.282Z,49.95
2022-09-12T07:44:19.297Z,52.05
2022-09-12T07:45:19.292Z,52.69
2022-09-12T07:46:19.368Z,50.60
2022-09-12T07:47:19.213Z,49.95
2022-09-12T07:48:19.198Z,53.66
2022-09-12T07:49:19.249Z,49.31
2022-09-12T07:50:19.234Z,51.08
2022-09-12T07:51:19.191Z,50.27
2022-09-12T07:52:19.240Z,52.21
2022-09-12T07:53:19.180Z,52.53
2022-09-12T07:54:19.248Z,52.69
2022-09-12T07:55:19.181Z,52.21
2022-09-12T07:56:19.173Z,53.01
2022-09-12T07:57:19.200Z,51.88
2022-09-12T07:58:19.308Z,50.27
2022-09-12T07:59:41.437Z,49.15
2022-09-12T08:00:21.163Z,52.69
2022-09-12T08:01:19.136Z,52.21
2022-09-12T08:02:19.689Z,53.82
2022-09-12T08:03:19.123Z,52.85
2022-09-12T08:04:19.106Z,50.76
2022-09-12T08:05:19.052Z,51.56
2022-09-12T08:06:19.066Z,45.92
2022-09-12T08:07:19.047Z,47.70
2022-09-12T08:08:19.043Z,50.92
2022-09-12T08:09:19.032Z,52.21
2022-09-12T08:10:18.998Z,53.17
2022-09-12T08:11:18.988Z,53.17
2022-09-12T08:12:18.982Z,50.60
2022-09-12T08:13:19.020Z,54.30
2022-09-12T08:14:18.961Z,46.89
2022-09-12T08:15:18.962Z,52.05
2022-09-12T08:16:18.922Z,50.27
2022-09-12T08:17:19.077Z,45.12
2022-09-12T08:18:18.967Z,48.66
2022-09-12T08:19:18.914Z,50.76
2022-09-12T08:20:18.900Z,51.72
2022-09-12T08:21:18.985Z,52.21
2022-09-12T08:22:18.922Z,51.88
2022-09-12T08:23:18.936Z,50.76
2022-09-12T08:24:18.893Z,52.21
2022-09-12T08:25:18.905Z,53.50
2022-09-12T08:26:18.833Z,53.82
2022-09-12T08:27:18.865Z,53.17
2022-09-12T08:28:18.848Z,53.17
2022-09-12T08:29:18.846Z,52.69
2022-09-12T08:30:18.822Z,52.69
2022-09-12T08:31:18.815Z,48.66
2022-09-12T08:32:18.832Z,51.40
2022-09-12T08:33:18.834Z,49.15
2022-09-12T08:34:18.846Z,48.66
2022-09-12T08:35:18.856Z,49.15
2022-09-12T08:36:18.883Z,51.40
2022-09-12T08:37:18.808Z,52.21
2022-09-12T08:38:18.813Z,52.05
2022-09-12T08:39:23.764Z,52.69
2022-09-12T08:40:18.809Z,55.11
2022-09-12T08:41:18.821Z,50.27
2022-09-12T08:42:18.737Z,55.27
2022-09-12T08:43:18.763Z,48.66
2022-09-12T08:44:18.793Z,49.79
2022-09-12T08:45:18.732Z,50.60
2022-09-12T08:46:18.745Z,48.82
2022-09-12T08:47:18.720Z,52.69
2022-09-12T08:48:18.658Z,51.56
2022-09-12T08:49:18.700Z,52.21
2022-09-12T08:50:18.673Z,48.82
2022-09-12T08:51:18.599Z,48.82
2022-09-12T08:52:18.647Z,49.95
2022-09-12T08:53:18.583Z,51.08
2022-09-12T08:54:18.577Z,50.76
2022-09-12T08:55:18.614Z,52.69
2022-09-12T08:56:18.730Z,48.50
2022-09-12T08:57:18.574Z,50.76
2022-09-12T08:58:18.564Z,51.40
2022-09-12T08:59:18.504Z,48.98
2022-09-12T09:00:19.170Z,51.72
2022-09-12T09:01:18.576Z,51.08
2022-09-12T09:02:18.566Z,48.34
2022-09-12T09:03:18.519Z,52.21
2022-09-12T09:04:18.525Z,53.50
2022-09-12T09:05:18.530Z,49.47
2022-09-12T09:06:18.473Z,48.50
2022-09-12T09:07:18.448Z,50.60
2022-09-12T09:08:18.443Z,53.01
2022-09-12T09:09:18.457Z,48.98
2022-09-12T09:10:18.550Z,49.15
2022-09-12T09:11:18.440Z,49.47
2022-09-12T09:12:18.388Z,49.95
2022-09-12T09:13:18.408Z,48.02
2022-09-12T09:14:18.433Z,51.56
2022-09-12T09:15:18.376Z,54.30
2022-09-12T09:16:18.434Z,53.01
2022-09-12T09:17:18.350Z,51.40
2022-09-12T09:18:18.362Z,48.34
2022-09-12T09:19:18.393Z,50.76
2022-09-12T09:20:18.341Z,53.50
2022-09-12T09:21:18.362Z,52.37
2022-09-12T09:22:18.313Z,50.76
2022-09-12T09:23:18.323Z,48.66
2022-09-12T09:24:18.357Z,56.56
2022-09-12T09:25:22.588Z,47.37
2022-09-12T09:26:19.230Z,49.47
2022-09-12T09:27:37.287Z,53.01
2022-09-12T09:28:20.270Z,52.85
2022-09-12T09:29:18.242Z,49.15
2022-09-12T09:30:18.319Z,51.56
2022-09-12T09:31:18.273Z,49.95
2022-09-12T09:32:18.179Z,53.01
2022-09-12T09:33:18.214Z,48.98
2022-09-12T09:34:18.168Z,51.56
2022-09-12T09:35:18.146Z,48.98
2022-09-12T09:36:18.133Z,52.21
2022-09-12T09:37:18.145Z,51.24
2022-09-12T09:38:18.143Z,50.43
2022-09-12T09:39:18.109Z,53.33
2022-09-12T09:40:18.274Z,54.30
2022-09-12T09:41:18.112Z,52.85
2022-09-12T09:42:18.115Z,51.72
2022-09-12T09:43:18.149Z,52.05
2022-09-12T09:44:18.626Z,51.40
2022-09-12T09:45:18.139Z,53.66
2022-09-12T09:46:18.088Z,53.82
2022-09-12T09:47:18.008Z,46.73
2022-09-12T09:48:18.032Z,53.17
2022-09-12T09:49:18.029Z,46.73
2022-09-12T09:50:18.017Z,51.72
2022-09-12T09:51:17.997Z,51.08
2022-09-12T09:52:17.994Z,48.02
2022-09-12T09:53:18.027Z,49.63
2022-09-12T09:54:17.990Z,50.60
2022-09-12T09:55:17.917Z,52.21
2022-09-12T09:56:21.407Z,50.11
2022-09-12T09:57:18.927Z,50.27
2022-09-12T09:58:17.971Z,50.43
2022-09-12T09:59:18.008Z,50.43
2022-09-12T10:00:17.911Z,49.47
2022-09-12T10:01:17.974Z,49.95
2022-09-12T10:02:23.157Z,50.76
2022-09-12T10:03:19.935Z,49.47
2022-09-12T10:04:17.931Z,53.82
2022-09-12T10:05:17.919Z,55.75
2022-09-12T10:06:17.861Z,53.82
2022-09-12T10:07:17.829Z,51.56
2022-09-12T10:08:17.835Z,50.76
2022-09-12T10:09:17.845Z,48.82
2022-09-12T10:10:17.803Z,49.63
2022-09-12T10:11:17.796Z,50.27
2022-09-12T10:12:17.806Z,47.70
2022-09-12T10:13:17.812Z,52.21
2022-09-12T10:14:17.764Z,53.66
2022-09-12T10:15:17.800Z,53.66
2022-09-12T10:16:17.755Z,52.53
2022-09-12T10:17:17.750Z,50.11
2022-09-12T10:18:17.783Z,52.05
2022-09-12T10:19:17.783Z,52.37
2022-09-12T10:20:21.497Z,52.53
2022-09-12T10:21:18.708Z,47.53
2022-09-12T10:22:17.811Z,50.43
2022-09-12T10:23:17.695Z,50.11
2022-09-12T10:24:17.703Z,53.33
2022-09-12T10:25:17.654Z,49.79
2022-09-12T10:26:17.633Z,52.53
2022-09-12T10:27:17.638Z,53.50
2022-09-12T10:28:17.642Z,51.40
2022-09-12T10:29:17.662Z,48.18
2022-09-12T10:30:17.595Z,50.60
2022-09-12T10:31:17.717Z,53.82
2022-09-12T10:32:17.600Z,51.56
2022-09-12T10:33:17.660Z,50.76
2022-09-12T10:34:17.573Z,53.50
2022-09-12T10:35:17.602Z,53.33
2022-09-12T10:36:17.541Z,49.63
2022-09-12T10:37:17.598Z,50.60
2022-09-12T10:38:17.524Z,53.17
2022-09-12T10:39:17.518Z,49.95
2022-09-12T10:40:17.569Z,49.47
2022-09-12T10:41:18.110Z,52.85
2022-09-12T10:42:21.553Z,46.41
2022-09-12T10:43:19.496Z,48.18
2022-09-12T10:44:17.503Z,52.21
2022-09-12T10:45:17.439Z,48.82
2022-09-12T10:46:17.521Z,47.05
2022-09-12T10:47:17.453Z,46.89
2022-09-12T10:48:17.477Z,45.28
2022-09-12T10:49:17.418Z,45.12
2022-09-12T10:50:22.644Z,50.11
2022-09-12T10:51:19.407Z,44.31
2022-09-12T10:52:17.446Z,48.50
2022-09-12T10:53:17.387Z,51.24
2022-09-12T10:54:17.416Z,50.60
2022-09-12T10:55:17.370Z,49.79
2022-09-12T10:56:17.361Z,48.82
2022-09-12T10:57:17.334Z,46.73
2022-09-12T10:58:17.325Z,50.60
2022-09-12T10:59:20.089Z,48.34
2022-09-12T11:00:18.367Z,50.43
2022-09-12T11:01:17.362Z,54.30
2022-09-12T11:02:17.359Z,50.92
2022-09-12T11:03:17.299Z,49.47
2022-09-12T11:04:17.284Z,49.47
2022-09-12T11:05:21.968Z,50.11
2022-09-12T11:06:19.267Z,50.76
2022-09-12T11:07:17.265Z,49.47
2022-09-12T11:08:17.279Z,53.17
2022-09-12T11:09:17.303Z,48.02
2022-09-12T11:10:17.247Z,50.76
2022-09-12T11:11:17.199Z,51.24
2022-09-12T11:12:17.171Z,45.92
2022-09-12T11:13:17.185Z,49.63
2022-09-12T11:14:17.194Z,49.63
2022-09-12T11:15:17.917Z,49.15
2022-09-12T11:16:17.268Z,50.92
2022-09-12T11:17:17.166Z,48.18
2022-09-12T11:18:17.166Z,48.82
2022-09-12T11:19:18.088Z,50.60
2022-09-12T11:20:17.145Z,47.53
2022-09-12T11:21:17.082Z,49.79
2022-09-12T11:22:17.082Z,51.40
2022-09-12T11:23:17.085Z,48.18
2022-09-12T11:24:17.085Z,48.98
2022-09-12T11:25:17.024Z,49.63
2022-09-12T11:26:17.058Z,51.40
2022-09-12T11:27:17.086Z,51.08
2022-09-12T11:28:17.090Z,51.88
2022-09-12T11:29:17.033Z,48.82
2022-09-12T11:30:17.045Z,48.18
2022-09-12T11:31:17.120Z,48.34
2022-09-12T11:32:16.990Z,46.73
2022-09-12T11:33:17.027Z,51.40
2022-09-12T11:34:17.059Z,47.86
2022-09-12T11:35:17.786Z,50.76
2022-09-12T11:36:17.945Z,49.95
2022-09-12T11:37:18.147Z,52.69
2022-09-12T11:38:18.008Z,50.92
2022-09-12T11:39:16.951Z,48.50
2022-09-12T11:40:17.010Z,48.66
2022-09-12T11:41:16.940Z,49.31
2022-09-12T11:42:16.933Z,52.05
2022-09-12T11:43:16.890Z,54.79
2022-09-12T11:44:16.877Z,49.79
2022-09-12T11:45:16.875Z,51.56
2022-09-12T11:46:16.917Z,44.15
2022-09-12T11:47:16.855Z,51.08
2022-09-12T11:48:16.861Z,48.82
2022-09-12T11:49:16.846Z,50.43
2022-09-12T11:50:16.811Z,46.89
2022-09-12T11:51:16.789Z,50.27
2022-09-12T11:52:16.802Z,51.88
2022-09-12T11:53:16.973Z,49.47
2022-09-12T11:54:16.803Z,44.47
2022-09-12T11:55:16.839Z,48.98
2022-09-12T11:56:16.755Z,51.08
2022-09-12T11:57:16.768Z,50.11
2022-09-12T11:58:16.729Z,51.88
2022-09-12T11:59:16.734Z,49.63
2022-09-12T12:00:16.762Z,52.69
2022-09-12T12:01:16.729Z,48.50
2022-09-12T12:02:16.776Z,50.27
2022-09-12T12:03:16.746Z,49.31
2022-09-12T12:04:16.714Z,49.95
2022-09-12T12:05:16.732Z,52.37
2022-09-12T12:06:16.649Z,53.98
2022-09-12T12:07:16.693Z,52.21
2022-09-12T12:08:16.678Z,50.60
2022-09-12T12:09:16.656Z,50.92
2022-09-12T12:10:16.638Z,53.82
2022-09-12T12:11:16.626Z,52.53
2022-09-12T12:12:16.675Z,52.85
2022-09-12T12:13:16.605Z,48.66
2022-09-12T12:14:16.599Z,48.82
2022-09-12T12:15:16.606Z,50.27
2022-09-12T12:16:16.657Z,48.50
2022-09-12T12:17:16.559Z,49.47
2022-09-12T12:18:16.535Z,50.76
2022-09-12T12:19:16.574Z,48.50
2022-09-12T12:20:16.550Z,49.15
2022-09-12T12:21:16.511Z,46.89
2022-09-12T12:22:16.546Z,46.41
2022-09-12T12:23:16.494Z,49.47
2022-09-12T12:24:16.490Z,49.31
2022-09-12T12:25:21.325Z,49.47
2022-09-12T12:26:18.484Z,47.53
2022-09-12T12:27:16.494Z,52.69
2022-09-12T12:28:16.481Z,52.05
2022-09-12T12:29:16.500Z,52.21
2022-09-12T12:30:16.505Z,50.27
2022-09-12T12:31:16.472Z,47.86
2022-09-12T12:32:16.424Z,46.89
2022-09-12T12:33:16.414Z,51.08
2022-09-12T12:34:16.770Z,47.37
2022-09-12T12:35:16.426Z,45.12
2022-09-12T12:36:16.363Z,48.82
2022-09-12T12:37:16.355Z,50.11
2022-09-12T12:38:16.331Z,53.66
2022-09-12T12:39:16.348Z,51.40
2022-09-12T12:40:16.426Z,53.66
2022-09-12T12:41:16.327Z,47.70
2022-09-12T12:42:19.154Z,47.86
2022-09-12T12:43:17.331Z,52.85
2022-09-12T12:44:16.298Z,52.85
2022-09-12T12:45:16.280Z,50.43
2022-09-12T12:46:16.314Z,50.92
2022-09-12T12:47:16.261Z,51.08
2022-09-12T12:48:16.237Z,49.31
2022-09-12T12:49:16.443Z,50.11
2022-09-12T12:50:16.247Z,48.82
2022-09-12T12:51:16.248Z,49.63
2022-09-12T12:52:16.227Z,48.34
2022-09-12T12:53:17.124Z,52.69
2022-09-12T12:54:16.279Z,49.15
2022-09-12T12:55:16.202Z,50.43
2022-09-12T12:56:16.171Z,48.66
2022-09-12T12:57:16.153Z,49.63
2022-09-12T12:58:16.161Z,47.05
2022-09-12T12:59:16.165Z,46.41
2022-09-12T13:00:16.138Z,50.92
2022-09-12T13:01:16.169Z,47.53
2022-09-12T13:02:16.148Z,48.82
2022-09-12T13:03:16.078Z,47.21
2022-09-12T13:04:16.122Z,49.15
2022-09-12T13:05:16.117Z,49.79
2022-09-12T13:06:16.124Z,51.24
2022-09-12T13:07:16.055Z,50.11
2022-09-12T13:08:16.147Z,48.02
2022-09-12T13:09:16.092Z,48.66
2022-09-12T13:10:16.074Z,48.66
2022-09-12T13:11:16.031Z,48.34
2022-09-12T13:12:16.022Z,50.60
2022-09-12T13:13:16.051Z,49.15
2022-09-12T13:14:16.011Z,48.02
2022-09-12T13:15:16.119Z,47.37
2022-09-12T13:16:16.061Z,45.60
2022-09-12T13:17:16.029Z,44.47
2022-09-12T13:18:16.013Z,48.82
2022-09-12T13:19:18.343Z,49.15
2022-09-12T13:20:27.970Z,46.89
2022-09-12T13:21:17.983Z,51.24
2022-09-12T13:22:15.935Z,46.73
2022-09-12T13:23:15.949Z,50.92
2022-09-12T13:24:16.005Z,50.92
2022-09-12T13:25:15.910Z,46.73
2022-09-12T13:26:15.871Z,48.50
2022-09-12T13:27:16.006Z,49.31
2022-09-12T13:28:15.873Z,50.92
2022-09-12T13:29:15.902Z,51.24
2022-09-12T13:30:15.873Z,50.43
2022-09-12T13:31:16.801Z,48.50
2022-09-12T13:32:15.861Z,50.27
2022-09-12T13:33:15.796Z,51.08
2022-09-12T13:34:15.792Z,53.33
2022-09-12T13:35:15.788Z,53.98
2022-09-12T13:36:15.809Z,49.95
2022-09-12T13:37:15.779Z,53.17
2022-09-12T13:38:15.806Z,48.50
2022-09-12T13:39:15.789Z,51.08
2022-09-12T13:40:15.767Z,47.86
2022-09-12T13:41:15.755Z,49.95
2022-09-12T13:42:15.732Z,49.95
2022-09-12T13:43:15.704Z,49.15
2022-09-12T13:44:15.745Z,48.18
2022-09-12T13:45:15.755Z,47.21
2022-09-12T13:46:15.756Z,49.95
2022-09-12T13:47:15.659Z,49.15
2022-09-12T13:48:15.674Z,47.37
2022-09-12T13:49:15.744Z,49.47
2022-09-12T13:50:16.169Z,48.34
2022-09-12T13:51:15.626Z,48.34
2022-09-12T13:52:15.663Z,46.89
2022-09-12T13:53:15.681Z,50.11
2022-09-12T13:54:15.678Z,48.66
2022-09-12T13:55:15.655Z,50.60
2022-09-12T13:56:15.567Z,51.40
2022-09-12T13:57:15.583Z,50.27
2022-09-12T13:58:15.629Z,50.27
2022-09-12T13:59:15.615Z,49.79
2022-09-12T14:00:15.581Z,49.79
2022-09-12T14:01:15.581Z,49.95
2022-09-12T14:02:15.571Z,50.11
2022-09-12T14:03:15.520Z,49.15
2022-09-12T14:04:15.519Z,48.50
2022-09-12T14:05:15.513Z,47.53
2022-09-12T14:06:15.545Z,48.34
2022-09-12T14:07:15.507Z,50.60
2022-09-12T14:08:15.478Z,49.95
2022-09-12T14:09:15.517Z,49.63
2022-09-12T14:10:15.530Z,50.76
2022-09-12T14:11:15.416Z,47.21
2022-09-12T14:12:15.428Z,46.57
2022-09-12T14:13:15.457Z,52.21
2022-09-12T14:14:15.467Z,47.53
2022-09-12T14:15:15.444Z,45.92
2022-09-12T14:16:15.415Z,46.57
2022-09-12T14:17:16.299Z,48.18
2022-09-12T14:18:16.388Z,48.34
2022-09-12T14:19:15.408Z,49.47
2022-09-12T14:20:15.350Z,46.89
2022-09-12T14:21:15.367Z,50.43
2022-09-12T14:22:15.293Z,48.82
2022-09-12T14:23:15.339Z,50.76
2022-09-12T14:24:15.479Z,50.43
2022-09-12T14:25:15.360Z,47.86
2022-09-12T14:26:15.305Z,50.11
2022-09-12T14:27:15.310Z,51.72
2022-09-12T14:28:15.325Z,50.76
2022-09-12T14:29:15.315Z,49.95
2022-09-12T14:30:15.227Z,49.63
2022-09-12T14:31:15.329Z,48.98
2022-09-12T14:32:15.260Z,51.40
2022-09-12T14:33:15.212Z,50.60
2022-09-12T14:34:15.242Z,52.05
2022-09-12T14:35:15.215Z,51.08
2022-09-12T14:36:15.198Z,50.11
2022-09-12T14:37:15.211Z,51.56
2022-09-12T14:38:15.154Z,52.05
2022-09-12T14:39:15.186Z,50.76
2022-09-12T14:40:15.207Z,50.92
2022-09-12T14:41:15.187Z,49.63
2022-09-12T14:42:15.145Z,50.60
2022-09-12T14:43:15.164Z,50.43
2022-09-12T14:44:15.146Z,50.11
2022-09-12T14:45:15.107Z,51.88
2022-09-12T14:46:15.163Z,53.01
2022-09-12T14:47:15.084Z,49.63
2022-09-12T14:48:15.723Z,50.27
2022-09-12T14:49:15.137Z,55.75
2022-09-12T14:50:15.047Z,50.43
2022-09-12T14:51:15.055Z,50.60
2022-09-12T14:52:15.027Z,51.08
2022-09-12T14:53:15.040Z,51.24
2022-09-12T14:54:15.074Z,52.05
2022-09-12T14:55:15.101Z,54.62
2022-09-12T14:56:15.020Z,48.34
2022-09-12T14:57:15.030Z,51.24
2022-09-12T14:58:14.954Z,50.92
2022-09-12T14:59:14.994Z,53.01
2022-09-12T15:00:14.973Z,49.15
2022-09-12T15:01:15.032Z,51.24
2022-09-12T15:02:15.068Z,54.30
2022-09-12T15:03:14.943Z,54.14
2022-09-12T15:04:14.955Z,52.21
2022-09-12T15:05:14.968Z,53.33
2022-09-12T15:06:15.621Z,49.95
2022-09-12T15:07:15.664Z,52.69
2022-09-12T15:08:14.887Z,52.85
2022-09-12T15:09:14.911Z,53.33
2022-09-12T15:10:14.872Z,50.27
2022-09-12T15:11:14.906Z,50.43
2022-09-12T15:12:14.837Z,50.11
2022-09-12T15:13:14.816Z,51.88
2022-09-12T15:14:14.864Z,53.66
2022-09-12T15:15:14.885Z,54.95
2022-09-12T15:16:14.898Z,53.50
2022-09-12T15:17:14.817Z,53.50
2022-09-12T15:18:14.813Z,53.50
2022-09-12T15:19:14.777Z,55.27
2022-09-12T15:20:14.833Z,48.66
2022-09-12T15:21:14.901Z,53.50
2022-09-12T15:22:14.739Z,51.72
2022-09-12T15:23:14.808Z,50.27
2022-09-12T15:24:14.730Z,47.37
2022-09-12T15:25:14.750Z,49.15
2022-09-12T15:26:14.788Z,47.21
2022-09-12T15:27:14.703Z,52.21
2022-09-12T15:28:14.743Z,51.56
2022-09-12T15:29:14.676Z,49.95
2022-09-12T15:30:14.663Z,48.98
2022-09-12T15:31:14.722Z,53.01
2022-09-12T15:32:14.670Z,49.63
2022-09-12T15:33:14.722Z,50.60
2022-09-12T15:34:14.667Z,49.63
2022-09-12T15:35:14.615Z,50.60
2022-09-12T15:36:14.642Z,50.27
2022-09-12T15:37:14.611Z,47.37
2022-09-12T15:38:14.590Z,53.01